Terminal Aerodrome Forecast
Issued by NWS

Home | Current Version | Previous Version | Text Only | Print | Product List | Glossary On
Versions: 1 2 3 4 5 6 7 8 9 10 11 12 13 14 15 16 17
000
FTUS41 KPBZ 292300
TAFBVI
TAF
KBVI 292320Z 3000/3024 VRB03KT P6SM SCT060
     FM300500 VRB05KT P6SM BKN060
     FM301600 25012KT P6SM VCSH BKN030
      AMD NOT SKED 3001/3011=

USA.gov is the U.S. government's official web portal to all federal, state and local government web resources and services.